createdAt,value
2023-04-26T00:01:05.747Z,0.82
2023-04-26T00:03:35.361Z,1.10
2023-04-26T00:06:08.808Z,1.40
2023-04-26T00:08:37.407Z,1.50
2023-04-26T00:11:05.810Z,1.10
2023-04-26T00:13:34.216Z,0.93
2023-04-26T00:16:06.104Z,1.55
2023-04-26T00:18:36.639Z,1.10
2023-04-26T00:21:07.145Z,1.20
2023-04-26T00:23:36.665Z,1.50
2023-04-26T00:26:05.173Z,1.10
2023-04-26T00:28:33.317Z,0.93
2023-04-26T00:31:01.764Z,1.08
2023-04-26T00:33:30.549Z,0.90
2023-04-26T00:35:59.960Z,1.20
2023-04-26T00:38:28.282Z,1.00
2023-04-26T00:40:56.509Z,1.00
2023-04-26T00:43:24.843Z,1.02
2023-04-26T00:45:56.300Z,1.00
2023-04-26T00:48:25.630Z,1.00
2023-04-26T00:50:54.105Z,0.90
2023-04-26T00:53:24.596Z,0.50
2023-04-26T00:55:52.905Z,0.82
2023-04-26T00:58:20.999Z,0.77
2023-04-26T01:00:51.753Z,0.80
2023-04-26T01:03:20.757Z,0.98
2023-04-26T01:05:49.666Z,1.00
2023-04-26T01:08:21.041Z,1.00
2023-04-26T01:10:51.299Z,0.90
2023-04-26T01:13:20.626Z,0.95
2023-04-26T01:15:50.274Z,1.33
2023-04-26T01:18:19.509Z,0.90
2023-04-26T01:20:48.717Z,0.70
2023-04-26T01:23:18.693Z,0.90
2023-04-26T01:25:46.710Z,0.70
2023-04-26T01:28:14.899Z,1.15
2023-04-26T01:30:43.277Z,0.90
2023-04-26T01:33:11.492Z,1.25
2023-04-26T01:35:40.131Z,0.93
2023-04-26T01:38:08.444Z,0.85
2023-04-26T01:40:38.026Z,1.08
2023-04-26T01:43:07.655Z,1.05
2023-04-26T01:45:35.949Z,1.23
2023-04-26T01:48:22.578Z,0.90
2023-04-26T01:50:50.820Z,1.00
2023-04-26T01:53:19.003Z,1.10
2023-04-26T01:55:48.671Z,1.20
2023-04-26T01:58:17.922Z,1.08
2023-04-26T02:00:46.307Z,1.40
2023-04-26T02:03:15.105Z,1.27
2023-04-26T02:05:43.846Z,1.33
2023-04-26T02:08:12.148Z,1.27
2023-04-26T02:10:40.640Z,1.10
2023-04-26T02:13:10.319Z,1.27
2023-04-26T02:15:38.578Z,1.45
2023-04-26T02:18:06.914Z,1.30
2023-04-26T02:20:35.071Z,1.13
2023-04-26T02:23:03.564Z,1.42
2023-04-26T02:25:32.360Z,1.40
2023-04-26T02:28:00.418Z,1.35
2023-04-26T02:30:31.575Z,0.80
2023-04-26T02:32:59.780Z,1.08
2023-04-26T02:35:28.195Z,1.70
2023-04-26T02:37:56.473Z,1.23
2023-04-26T02:40:25.213Z,1.48
2023-04-26T02:42:56.232Z,1.40
2023-04-26T02:45:25.019Z,1.27
2023-04-26T02:47:54.873Z,1.30
2023-04-26T02:50:23.382Z,1.70
2023-04-26T02:52:52.453Z,1.25
2023-04-26T02:55:21.349Z,1.77
2023-04-26T02:57:49.448Z,1.40
2023-04-26T03:00:17.936Z,1.23
2023-04-26T03:02:46.144Z,1.97
2023-04-26T03:05:16.137Z,1.80
2023-04-26T03:07:44.556Z,3.50
2023-04-26T03:10:12.833Z,3.20
2023-04-26T03:12:41.568Z,2.65
2023-04-26T03:15:09.961Z,1.97
2023-04-26T03:17:41.412Z,1.52
2023-04-26T03:20:11.051Z,1.15
2023-04-26T03:22:41.244Z,1.90
2023-04-26T03:25:10.637Z,1.30
2023-04-26T03:27:38.622Z,1.30
2023-04-26T03:30:08.320Z,1.55
2023-04-26T03:32:38.562Z,1.65
2023-04-26T03:35:08.387Z,1.50
2023-04-26T03:37:39.748Z,1.25
2023-04-26T03:40:12.363Z,1.80
2023-04-26T03:42:41.092Z,2.85
2023-04-26T03:45:10.168Z,1.30
2023-04-26T03:47:41.262Z,1.17
2023-04-26T03:50:12.460Z,1.38
2023-04-26T03:52:41.813Z,1.50
2023-04-26T03:55:11.970Z,1.60
2023-04-26T03:57:40.692Z,2.00
2023-04-26T04:00:12.427Z,1.85
2023-04-26T04:02:44.490Z,1.88
2023-04-26T04:05:19.162Z,1.67
2023-04-26T04:07:47.901Z,1.92
2023-04-26T04:10:17.550Z,2.13
2023-04-26T04:12:46.633Z,2.20
2023-04-26T04:15:17.563Z,2.80
2023-04-26T04:17:49.233Z,2.13
2023-04-26T04:20:17.895Z,2.70
2023-04-26T04:22:46.144Z,2.60
2023-04-26T04:25:14.863Z,2.85
2023-04-26T04:27:45.392Z,2.70
2023-04-26T04:30:14.582Z,2.97
2023-04-26T04:32:45.053Z,2.85
2023-04-26T04:35:15.685Z,3.17
2023-04-26T04:37:51.295Z,4.03
2023-04-26T04:40:24.627Z,3.38
2023-04-26T04:42:54.934Z,4.07
2023-04-26T04:45:24.640Z,4.15
2023-04-26T04:47:56.336Z,2.75
2023-04-26T04:50:24.811Z,3.58
2023-04-26T04:52:53.544Z,3.15
2023-04-26T04:55:22.097Z,3.57
2023-04-26T04:57:50.813Z,3.60
2023-04-26T05:00:24.188Z,3.20
2023-04-26T05:02:59.742Z,3.38
2023-04-26T05:05:28.558Z,3.38
2023-04-26T05:07:57.082Z,3.77
2023-04-26T05:10:25.227Z,4.90
2023-04-26T05:12:55.521Z,3.05
2023-04-26T05:15:25.754Z,3.40
2023-04-26T05:17:55.858Z,3.95
2023-04-26T05:20:25.677Z,3.00
2023-04-26T05:22:54.483Z,3.50
2023-04-26T05:25:22.969Z,3.05
2023-04-26T05:27:58.304Z,3.13
2023-04-26T05:30:41.119Z,2.90
2023-04-26T05:33:23.309Z,6.90
2023-04-26T05:36:09.433Z,5.93
2023-04-26T05:38:38.094Z,5.63
2023-04-26T05:41:06.543Z,4.30
2023-04-26T05:43:35.472Z,3.72
2023-04-26T05:46:05.301Z,2.87
2023-04-26T05:48:33.452Z,2.95
2023-04-26T05:51:01.621Z,2.78
2023-04-26T05:53:30.006Z,3.10
2023-04-26T05:55:59.333Z,3.83
2023-04-26T05:58:28.077Z,5.60
2023-04-26T06:00:57.626Z,5.00
2023-04-26T06:03:28.033Z,3.83
2023-04-26T06:05:58.463Z,5.30
2023-04-26T06:08:28.869Z,6.05
2023-04-26T06:10:57.553Z,5.63
2023-04-26T06:13:28.287Z,3.30
2023-04-26T06:15:56.804Z,3.38
2023-04-26T06:18:27.669Z,3.03
2023-04-26T06:20:58.671Z,2.58
2023-04-26T06:23:27.328Z,2.20
2023-04-26T06:25:55.635Z,3.00
2023-04-26T06:28:23.877Z,2.97
2023-04-26T06:30:53.098Z,2.70
2023-04-26T06:33:21.610Z,2.75
2023-04-26T06:35:51.702Z,3.40
2023-04-26T06:38:21.032Z,2.67
2023-04-26T06:40:51.526Z,2.35
2023-04-26T06:43:21.980Z,2.53
2023-04-26T06:46:23.089Z,2.30
2023-04-26T06:48:56.837Z,2.40
2023-04-26T06:51:30.790Z,2.15
2023-04-26T06:54:12.632Z,2.38
2023-04-26T06:56:50.139Z,2.13
2023-04-26T06:59:18.679Z,2.22
2023-04-26T07:01:47.814Z,2.17
2023-04-26T07:04:20.850Z,2.33
2023-04-26T07:06:51.608Z,1.70
2023-04-26T07:09:20.366Z,1.88
2023-04-26T07:11:49.266Z,2.20
2023-04-26T07:14:19.630Z,2.47
2023-04-26T07:16:47.960Z,2.35
2023-04-26T07:19:16.440Z,1.65
2023-04-26T07:21:48.125Z,2.35
2023-04-26T07:24:18.448Z,1.70
2023-04-26T07:26:47.438Z,1.80
2023-04-26T07:29:16.201Z,1.95
2023-04-26T07:31:45.618Z,1.52
2023-04-26T07:34:14.602Z,1.73
2023-04-26T07:36:42.988Z,2.00
2023-04-26T07:39:22.154Z,2.00
2023-04-26T07:41:53.476Z,1.40
2023-04-26T07:44:22.282Z,1.65
2023-04-26T07:46:52.511Z,1.35
2023-04-26T07:49:20.979Z,1.60
2023-04-26T07:51:51.906Z,1.23
2023-04-26T07:54:20.693Z,1.55
2023-04-26T07:56:49.373Z,1.33
2023-04-26T07:59:20.616Z,1.20
2023-04-26T08:01:59.982Z,1.50
2023-04-26T08:04:34.783Z,1.80
2023-04-26T08:07:04.495Z,1.52
2023-04-26T08:09:33.021Z,2.25
2023-04-26T08:12:02.191Z,1.60
2023-04-26T08:14:33.655Z,1.50
2023-04-26T08:17:09.255Z,1.50
2023-04-26T08:19:47.885Z,1.77
2023-04-26T08:22:17.488Z,1.50
2023-04-26T08:24:50.375Z,1.52
2023-04-26T08:27:21.040Z,1.70
2023-04-26T08:29:51.618Z,2.20
2023-04-26T08:32:22.150Z,2.00
2023-04-26T08:34:51.062Z,1.90
2023-04-26T08:37:19.668Z,1.60
2023-04-26T08:39:51.200Z,1.52
2023-04-26T08:42:21.726Z,1.70
2023-04-26T08:44:53.386Z,1.67
2023-04-26T08:47:31.980Z,1.38
2023-04-26T08:50:05.018Z,1.38
2023-04-26T08:52:41.576Z,1.70
2023-04-26T08:55:12.926Z,1.40
2023-04-26T08:57:42.422Z,1.50
2023-04-26T09:00:14.494Z,1.83
2023-04-26T09:02:48.619Z,1.33
2023-04-26T09:05:17.407Z,1.55
2023-04-26T09:07:47.206Z,1.50
2023-04-26T09:10:21.579Z,1.85
2023-04-26T09:12:53.889Z,1.90
2023-04-26T09:15:29.200Z,1.30
2023-04-26T09:18:18.222Z,1.65
2023-04-26T09:20:47.396Z,1.60
2023-04-26T09:23:17.399Z,1.60
2023-04-26T09:25:48.572Z,1.75
2023-04-26T09:28:22.558Z,1.50
2023-04-26T09:30:52.570Z,1.38
2023-04-26T09:34:03.874Z,1.43
2023-04-26T09:36:33.474Z,1.33
2023-04-26T09:39:04.030Z,1.50
2023-04-26T09:41:44.479Z,1.40
2023-04-26T09:44:23.888Z,1.30
2023-04-26T09:47:12.105Z,1.30
2023-04-26T09:49:51.476Z,1.40
2023-04-26T09:52:21.586Z,1.08
2023-04-26T09:54:53.774Z,1.10
2023-04-26T09:57:25.826Z,1.20
2023-04-26T09:59:57.362Z,1.13
2023-04-26T10:02:35.762Z,0.90
2023-04-26T10:05:08.880Z,1.15
2023-04-26T10:07:38.222Z,0.70
2023-04-26T10:10:10.013Z,0.93
2023-04-26T10:12:38.693Z,0.90
2023-04-26T10:15:09.626Z,1.23
2023-04-26T10:17:39.711Z,1.00
2023-04-26T10:20:14.408Z,1.00
2023-04-26T10:22:47.982Z,1.40
2023-04-26T10:25:16.116Z,1.20
2023-04-26T10:27:53.116Z,1.40
2023-04-26T10:30:24.234Z,1.30
2023-04-26T10:33:18.957Z,1.13
2023-04-26T10:36:14.085Z,1.13
2023-04-26T10:39:04.524Z,1.37
2023-04-26T10:41:36.132Z,1.20
2023-04-26T10:44:40.101Z,1.70
2023-04-26T10:47:09.699Z,1.30
2023-04-26T10:49:49.254Z,1.30
2023-04-26T10:52:20.329Z,1.50
2023-04-26T10:55:00.903Z,1.10
2023-04-26T10:57:50.413Z,1.10
2023-04-26T11:00:34.132Z,1.63
2023-04-26T11:03:08.866Z,1.40
2023-04-26T11:05:49.606Z,1.40
2023-04-26T11:08:19.418Z,1.40
2023-04-26T11:10:53.271Z,1.42
2023-04-26T11:13:21.845Z,1.20
2023-04-26T11:15:58.231Z,1.10
2023-04-26T11:18:28.220Z,1.43
2023-04-26T11:21:00.213Z,1.20
2023-04-26T11:23:31.176Z,1.58
2023-04-26T11:26:03.429Z,1.20
2023-04-26T11:28:34.057Z,1.60
2023-04-26T11:31:04.247Z,1.40
2023-04-26T11:33:34.264Z,1.30
2023-04-26T11:36:07.720Z,1.30
2023-04-26T11:38:36.022Z,1.70
2023-04-26T11:41:07.658Z,1.38
2023-04-26T11:43:42.217Z,1.67
2023-04-26T11:46:12.825Z,1.48
2023-04-26T11:48:42.107Z,1.98
2023-04-26T11:51:11.961Z,1.30
2023-04-26T11:53:44.470Z,1.50
2023-04-26T11:56:17.827Z,1.30
2023-04-26T11:58:47.304Z,1.30
2023-04-26T12:01:24.319Z,1.38
2023-04-26T12:03:57.197Z,1.60
2023-04-26T12:06:33.890Z,1.55
2023-04-26T12:12:01.013Z,1.60
2023-04-26T12:14:32.955Z,1.50
2023-04-26T12:17:03.835Z,1.30
2023-04-26T12:19:34.687Z,1.73
2023-04-26T12:22:05.003Z,1.50
2023-04-26T12:24:37.061Z,1.92
2023-04-26T12:27:07.879Z,1.48
2023-04-26T12:29:45.167Z,1.80
2023-04-26T12:32:13.953Z,1.70
2023-04-26T12:34:49.147Z,1.57
2023-04-26T12:37:18.936Z,1.60
2023-04-26T12:39:49.317Z,1.33
2023-04-26T12:42:18.592Z,1.58
2023-04-26T12:44:48.692Z,1.55
2023-04-26T12:47:18.750Z,1.60
2023-04-26T12:49:46.772Z,1.42
2023-04-26T12:52:15.661Z,1.38
2023-04-26T12:54:47.067Z,1.30
2023-04-26T12:57:21.245Z,1.35
2023-04-26T12:59:50.788Z,1.70
2023-04-26T13:02:18.925Z,2.03
2023-04-26T13:04:47.497Z,1.25
2023-04-26T13:07:16.294Z,1.50
2023-04-26T13:09:47.340Z,1.58
2023-04-26T13:12:17.541Z,1.60
2023-04-26T13:14:48.292Z,1.42
2023-04-26T13:17:16.674Z,1.20
2023-04-26T13:19:48.830Z,1.63
2023-04-26T13:22:18.481Z,1.42
2023-04-26T13:24:49.011Z,1.70
2023-04-26T13:27:18.074Z,1.30
2023-04-26T13:29:48.038Z,1.30
2023-04-26T13:32:16.410Z,1.40
2023-04-26T13:34:45.711Z,1.73
2023-04-26T13:37:13.937Z,1.77
2023-04-26T13:39:45.460Z,1.88
2023-04-26T13:42:16.563Z,1.60
2023-04-26T13:44:45.253Z,1.67
2023-04-26T13:47:13.614Z,1.25
2023-04-26T13:49:42.480Z,1.23
2023-04-26T13:52:10.667Z,1.20
2023-04-26T13:54:41.027Z,1.20
2023-04-26T13:57:14.114Z,1.58
2023-04-26T13:59:48.495Z,1.60
2023-04-26T14:02:20.339Z,1.60
2023-04-26T14:04:55.962Z,1.33
2023-04-26T14:07:24.468Z,1.23
2023-04-26T14:09:54.316Z,1.38
2023-04-26T14:12:22.639Z,1.30
2023-04-26T14:14:52.275Z,1.10
2023-04-26T14:17:20.314Z,1.35
2023-04-26T14:19:50.010Z,1.40
2023-04-26T14:22:19.732Z,1.63
2023-04-26T14:24:49.229Z,1.70
2023-04-26T14:27:20.504Z,1.40
2023-04-26T14:29:48.560Z,0.90
2023-04-26T14:32:18.116Z,1.23
2023-04-26T14:34:46.624Z,1.40
2023-04-26T14:37:15.228Z,1.52
2023-04-26T14:39:43.792Z,1.60
2023-04-26T14:42:13.094Z,1.55
2023-04-26T14:44:41.779Z,1.27
2023-04-26T14:47:10.251Z,1.27
2023-04-26T14:49:42.842Z,1.80
2023-04-26T14:52:11.103Z,1.40
2023-04-26T14:54:39.823Z,1.70
2023-04-26T14:57:16.331Z,1.23
2023-04-26T14:59:48.607Z,1.60
2023-04-26T15:02:21.710Z,1.75
2023-04-26T15:04:53.176Z,4.00
2023-04-26T15:07:31.282Z,1.80
2023-04-26T15:10:01.488Z,1.58
2023-04-26T15:12:30.092Z,1.52
2023-04-26T15:14:58.684Z,1.45
2023-04-26T15:17:27.240Z,1.40
2023-04-26T15:19:57.244Z,1.90
2023-04-26T15:22:28.620Z,1.50
2023-04-26T15:24:56.949Z,1.20
2023-04-26T15:27:25.393Z,1.70
2023-04-26T15:29:54.602Z,2.10
2023-04-26T15:32:24.736Z,1.92
2023-04-26T15:34:53.277Z,1.80
2023-04-26T15:37:22.999Z,1.70
2023-04-26T15:39:51.560Z,1.85
2023-04-26T15:42:19.899Z,2.00
2023-04-26T15:44:48.934Z,2.20
2023-04-26T15:47:17.078Z,1.98
2023-04-26T15:49:47.131Z,1.65
2023-04-26T15:52:17.532Z,7.45
2023-04-26T15:54:47.592Z,13.97
2023-04-26T15:57:18.518Z,13.30
2023-04-26T15:59:48.464Z,3.80
2023-04-26T16:02:17.170Z,7.10
2023-04-26T16:04:45.702Z,4.68
2023-04-26T16:07:15.297Z,8.07
2023-04-26T16:09:45.851Z,6.13
2023-04-26T16:12:17.075Z,18.38
2023-04-26T16:14:48.995Z,7.82
2023-04-26T16:17:17.138Z,9.90
2023-04-26T16:19:45.698Z,5.03
2023-04-26T16:22:14.153Z,3.47
2023-04-26T16:24:42.536Z,1.88
2023-04-26T16:27:11.045Z,1.95
2023-04-26T16:29:41.732Z,1.45
2023-04-26T16:32:10.755Z,1.63
2023-04-26T16:34:39.203Z,2.10
2023-04-26T16:37:10.766Z,1.50
2023-04-26T16:39:41.325Z,1.42
2023-04-26T16:42:10.030Z,1.52
2023-04-26T16:44:38.613Z,1.77
2023-04-26T16:47:10.770Z,2.15
2023-04-26T16:49:40.523Z,1.52
2023-04-26T16:52:09.371Z,1.30
2023-04-26T16:54:37.826Z,1.58
2023-04-26T16:57:08.312Z,2.17
2023-04-26T16:59:37.758Z,1.50
2023-04-26T17:02:06.071Z,2.20
2023-04-26T17:04:36.093Z,1.63
2023-04-26T17:07:04.335Z,1.70
2023-04-26T17:09:32.514Z,1.77
2023-04-26T17:12:02.008Z,2.17
2023-04-26T17:14:31.256Z,2.17
2023-04-26T17:17:01.283Z,2.20
2023-04-26T17:19:30.716Z,1.75
2023-04-26T17:22:00.764Z,2.10
2023-04-26T17:24:29.036Z,2.00
2023-04-26T17:26:57.202Z,2.90
2023-04-26T17:29:27.217Z,2.30
2023-04-26T17:31:56.630Z,2.30
2023-04-26T17:34:24.891Z,2.10
2023-04-26T17:36:53.216Z,2.50
2023-04-26T17:39:25.364Z,2.22
2023-04-26T17:41:55.378Z,2.40
2023-04-26T17:44:23.945Z,2.50
2023-04-26T17:46:56.420Z,1.77
2023-04-26T17:49:30.430Z,2.25
2023-04-26T17:52:00.125Z,2.38
2023-04-26T17:54:29.769Z,2.10
2023-04-26T17:56:58.739Z,1.85
2023-04-26T17:59:28.244Z,2.23
2023-04-26T18:01:58.051Z,1.80
2023-04-26T18:04:27.502Z,2.00
2023-04-26T18:06:56.444Z,2.10
2023-04-26T18:09:29.838Z,2.10
2023-04-26T18:12:01.663Z,1.77
2023-04-26T18:14:30.720Z,1.88
2023-04-26T18:16:59.058Z,2.20
2023-04-26T18:19:27.629Z,1.90
2023-04-26T18:21:56.369Z,1.95
2023-04-26T18:24:27.161Z,2.30
2023-04-26T18:26:55.300Z,2.00
2023-04-26T18:29:26.571Z,2.38
2023-04-26T18:31:54.806Z,1.90
2023-04-26T18:34:37.763Z,2.40
2023-04-26T18:37:06.145Z,2.00
2023-04-26T18:39:34.243Z,1.90
2023-04-26T18:42:05.191Z,2.30
2023-04-26T18:44:34.872Z,2.15
2023-04-26T18:47:03.765Z,1.63
2023-04-26T18:49:32.680Z,2.07
2023-04-26T18:52:02.295Z,1.73
2023-04-26T18:54:33.338Z,2.15
2023-04-26T18:57:07.119Z,1.95
2023-04-26T18:59:37.184Z,2.30
2023-04-26T19:02:05.617Z,2.27
2023-04-26T19:04:33.991Z,2.42
2023-04-26T19:07:02.275Z,2.25
2023-04-26T19:09:46.680Z,2.13
2023-04-26T19:12:20.040Z,1.83
2023-04-26T19:14:49.539Z,1.90
2023-04-26T19:17:17.701Z,2.25
2023-04-26T19:19:47.069Z,2.05
2023-04-26T19:22:16.207Z,2.20
2023-04-26T19:24:46.762Z,2.55
2023-04-26T19:27:14.915Z,3.10
2023-04-26T19:29:43.088Z,2.00
2023-04-26T19:32:15.260Z,2.45
2023-04-26T19:34:43.634Z,2.30
2023-04-26T19:37:12.244Z,2.38
2023-04-26T19:39:41.074Z,2.00
2023-04-26T19:42:09.665Z,2.15
2023-04-26T19:44:39.654Z,2.78
2023-04-26T19:47:08.692Z,2.03
2023-04-26T19:49:44.809Z,2.10
2023-04-26T19:52:13.808Z,2.17
2023-04-26T19:54:42.135Z,2.60
2023-04-26T19:57:11.022Z,2.40
2023-04-26T19:59:40.327Z,2.10
2023-04-26T20:02:11.433Z,2.28
2023-04-26T20:04:41.392Z,2.30
2023-04-26T20:07:10.379Z,2.67
2023-04-26T20:09:39.086Z,2.63
2023-04-26T20:12:08.737Z,2.60
2023-04-26T20:14:37.666Z,2.42
2023-04-26T20:17:07.366Z,2.40
2023-04-26T20:19:39.033Z,2.70
2023-04-26T20:22:11.146Z,3.00
2023-04-26T20:24:39.350Z,2.50
2023-04-26T20:27:07.679Z,2.50
2023-04-26T20:29:36.282Z,2.70
2023-04-26T20:32:05.115Z,2.53
2023-04-26T20:34:33.801Z,2.38
2023-04-26T20:37:03.881Z,2.28
2023-04-26T20:39:34.393Z,2.47
2023-04-26T20:42:03.611Z,2.40
2023-04-26T20:44:31.934Z,2.33
2023-04-26T20:47:01.250Z,2.47
2023-04-26T20:49:31.305Z,2.30
2023-04-26T20:52:01.079Z,2.35
2023-04-26T20:54:31.391Z,2.17
2023-04-26T20:57:01.818Z,1.90
2023-04-26T20:59:29.905Z,2.42
2023-04-26T21:01:58.136Z,2.58
2023-04-26T21:04:26.943Z,2.40
2023-04-26T21:06:57.849Z,2.37
2023-04-26T21:09:26.040Z,2.30
2023-04-26T21:11:55.828Z,1.98
2023-04-26T21:14:26.141Z,2.50
2023-04-26T21:17:05.709Z,2.85
2023-04-26T21:19:33.707Z,2.30
2023-04-26T21:22:01.689Z,2.30
2023-04-26T21:24:29.730Z,2.45
2023-04-26T21:26:57.650Z,2.10
2023-04-26T21:29:27.626Z,2.00
2023-04-26T21:31:55.743Z,2.33
2023-04-26T21:34:24.140Z,2.28
2023-04-26T21:36:53.403Z,2.10
2023-04-26T21:39:21.676Z,2.00
2023-04-26T21:41:49.673Z,2.55
2023-04-26T21:44:20.238Z,2.00
2023-04-26T21:46:50.498Z,2.33
2023-04-26T21:49:19.307Z,2.67
2023-04-26T21:51:47.545Z,2.35
2023-04-26T21:54:15.753Z,2.40
2023-04-26T21:56:44.578Z,2.30
2023-04-26T21:59:13.002Z,2.40
2023-04-26T22:01:44.158Z,2.40
2023-04-26T22:04:14.039Z,2.22
2023-04-26T22:06:42.584Z,2.22
2023-04-26T22:09:11.784Z,2.37
2023-04-26T22:11:40.008Z,2.13
2023-04-26T22:14:08.207Z,2.95
2023-04-26T22:16:36.680Z,2.90
2023-04-26T22:19:05.390Z,3.00
2023-04-26T22:21:35.176Z,2.80
2023-04-26T22:24:03.313Z,2.60
2023-04-26T22:26:31.434Z,2.72
2023-04-26T22:28:59.695Z,2.55
2023-04-26T22:31:27.754Z,2.95
2023-04-26T22:33:56.250Z,2.40
2023-04-26T22:36:24.947Z,2.90
2023-04-26T22:38:54.651Z,2.55
2023-04-26T22:41:23.832Z,2.55
2023-04-26T22:43:53.377Z,2.40
2023-04-26T22:46:21.691Z,2.50
2023-04-26T22:48:49.843Z,2.80
2023-04-26T22:51:18.467Z,2.60
2023-04-26T22:53:54.128Z,2.80
2023-04-26T22:56:23.536Z,2.80
2023-04-26T22:58:59.211Z,3.00
2023-04-26T23:01:27.433Z,2.92
2023-04-26T23:03:55.816Z,3.40
2023-04-26T23:06:23.792Z,3.05
2023-04-26T23:08:52.467Z,3.08
2023-04-26T23:11:20.575Z,3.30
2023-04-26T23:13:52.201Z,2.72
2023-04-26T23:16:21.276Z,3.15
2023-04-26T23:18:51.434Z,4.05
2023-04-26T23:21:19.406Z,3.38
2023-04-26T23:23:47.578Z,3.33
2023-04-26T23:26:16.581Z,3.25
2023-04-26T23:28:45.772Z,3.10
2023-04-26T23:31:15.313Z,2.90
2023-04-26T23:33:43.345Z,3.15
2023-04-26T23:36:11.509Z,3.27
2023-04-26T23:38:39.585Z,3.47
2023-04-26T23:41:07.722Z,3.10
2023-04-26T23:43:35.741Z,2.83
2023-04-26T23:46:03.960Z,2.60
2023-04-26T23:48:35.071Z,2.67
2023-04-26T23:51:03.120Z,3.13
2023-04-26T23:53:31.846Z,2.95
2023-04-26T23:56:01.001Z,2.72
2023-04-26T23:58:29.663Z,3.15
